createdAt,value
2022-10-17T03:01:31.819Z,9.70
2022-10-17T03:04:08.445Z,9.70
2022-10-17T03:06:35.648Z,9.80
2022-10-17T03:09:02.917Z,9.90
2022-10-17T03:11:30.131Z,9.90
2022-10-17T03:13:57.254Z,9.90
2022-10-17T03:16:24.472Z,9.90
2022-10-17T03:18:51.610Z,9.90
2022-10-17T03:21:18.777Z,10.00
2022-10-17T03:23:45.913Z,10.00
2022-10-17T03:26:13.242Z,10.00
2022-10-17T03:28:40.524Z,10.00
2022-10-17T03:31:13.116Z,10.00
2022-10-17T03:33:40.211Z,10.00
2022-10-17T03:36:09.244Z,9.90
2022-10-17T03:38:36.544Z,9.90
2022-10-17T03:41:04.529Z,9.80
2022-10-17T03:43:31.760Z,9.80
2022-10-17T03:46:00.173Z,9.70
2022-10-17T03:48:28.739Z,9.60
2022-10-17T03:51:01.187Z,9.70
2022-10-17T03:53:28.800Z,9.60
2022-10-17T03:55:56.844Z,9.50
2022-10-17T03:58:24.023Z,9.50
2022-10-17T04:00:51.271Z,9.60
2022-10-17T04:03:18.383Z,9.60
2022-10-17T04:05:45.532Z,9.60
2022-10-17T04:08:12.656Z,9.60
2022-10-17T04:10:39.832Z,9.60
2022-10-17T04:13:07.038Z,9.60
2022-10-17T04:15:34.242Z,9.60
2022-10-17T04:18:01.347Z,9.50
2022-10-17T04:20:28.484Z,9.50
2022-10-17T04:22:55.576Z,9.40
2022-10-17T04:25:22.753Z,9.50
2022-10-17T04:27:49.856Z,9.50
2022-10-17T04:30:17.518Z,9.30
2022-10-17T04:32:44.701Z,9.30
2022-10-17T04:35:11.902Z,9.40
2022-10-17T04:37:39.079Z,9.30
2022-10-17T04:40:06.827Z,9.30
2022-10-17T04:42:34.011Z,9.00
2022-10-17T04:45:01.133Z,8.80
2022-10-17T04:47:28.260Z,8.90
2022-10-17T04:49:55.407Z,8.80
2022-10-17T04:52:22.620Z,8.90
2022-10-17T04:54:49.743Z,9.00
2022-10-17T04:57:17.128Z,9.00
2022-10-17T04:59:44.416Z,9.00
2022-10-17T05:02:11.971Z,9.00
2022-10-17T05:04:39.080Z,9.00
2022-10-17T05:07:06.304Z,9.00
2022-10-17T05:09:33.392Z,9.10
2022-10-17T05:12:00.505Z,9.10
2022-10-17T05:14:27.800Z,9.20
2022-10-17T05:16:54.993Z,9.20
2022-10-17T05:19:22.091Z,9.10
2022-10-17T05:21:49.212Z,9.20
2022-10-17T05:24:16.383Z,9.00
2022-10-17T05:26:43.552Z,8.80
2022-10-17T05:29:10.949Z,8.80
2022-10-17T05:31:38.153Z,8.80
2022-10-17T05:34:07.084Z,8.80
2022-10-17T05:36:36.420Z,8.90
2022-10-17T05:39:06.655Z,8.90
2022-10-17T05:41:33.771Z,9.00
2022-10-17T05:44:04.626Z,9.10
2022-10-17T05:46:32.819Z,8.90
2022-10-17T05:48:59.965Z,8.90
2022-10-17T05:51:27.138Z,8.90
2022-10-17T05:53:54.364Z,9.00
2022-10-17T05:56:21.476Z,9.00
2022-10-17T05:58:50.962Z,9.00
2022-10-17T06:01:20.247Z,9.00
2022-10-17T06:03:47.437Z,9.10
2022-10-17T06:06:15.592Z,9.10
2022-10-17T06:08:43.233Z,9.30
2022-10-17T06:11:11.359Z,9.30
2022-10-17T06:13:39.462Z,9.40
2022-10-17T06:16:07.062Z,9.40
2022-10-17T06:18:34.204Z,9.40
2022-10-17T06:21:06.581Z,9.50
2022-10-17T06:23:34.159Z,9.50
2022-10-17T06:26:02.659Z,9.60
2022-10-17T06:28:30.229Z,9.60
2022-10-17T06:30:57.641Z,9.30
2022-10-17T06:33:24.899Z,9.30
2022-10-17T06:35:53.303Z,9.40
2022-10-17T06:38:21.056Z,9.50
2022-10-17T06:40:48.212Z,9.70
2022-10-17T06:43:15.372Z,9.90
2022-10-17T06:45:42.588Z,10.00
2022-10-17T06:48:09.868Z,10.40
2022-10-17T06:50:36.961Z,11.40
2022-10-17T06:53:04.095Z,11.40
2022-10-17T06:55:32.551Z,11.90
2022-10-17T06:57:59.696Z,12.10
2022-10-17T07:00:26.907Z,12.40
2022-10-17T07:02:54.054Z,12.30
2022-10-17T07:05:21.200Z,12.20
2022-10-17T07:07:50.967Z,12.10
2022-10-17T07:10:19.181Z,12.00
2022-10-17T07:12:46.392Z,12.00
2022-10-17T07:15:13.560Z,11.90
2022-10-17T07:17:40.650Z,11.90
2022-10-17T07:20:08.479Z,11.80
2022-10-17T07:22:35.599Z,11.80
2022-10-17T07:25:02.707Z,11.90
2022-10-17T07:27:30.040Z,12.00
2022-10-17T07:29:57.374Z,12.10
2022-10-17T07:32:24.520Z,12.10
2022-10-17T07:34:51.628Z,12.20
2022-10-17T07:37:18.809Z,12.40
2022-10-17T07:39:45.957Z,12.40
2022-10-17T07:42:14.469Z,12.50
2022-10-17T07:44:41.697Z,12.60
2022-10-17T07:47:08.858Z,12.70
2022-10-17T07:49:36.016Z,12.80
2022-10-17T07:52:03.146Z,12.90
2022-10-17T07:54:30.286Z,13.00
2022-10-17T07:56:57.430Z,13.10
2022-10-17T07:59:24.629Z,13.30
2022-10-17T08:01:54.920Z,13.40
2022-10-17T08:04:22.052Z,13.50
2022-10-17T08:06:53.447Z,13.70
2022-10-17T08:09:23.608Z,13.90
2022-10-17T08:11:50.772Z,14.10
2022-10-17T08:14:17.937Z,14.30
2022-10-17T08:16:45.124Z,14.40
2022-10-17T08:19:13.016Z,14.60
2022-10-17T08:21:41.321Z,14.70
2022-10-17T08:24:08.869Z,14.80
2022-10-17T08:26:39.264Z,15.10
2022-10-17T08:29:14.595Z,15.30
2022-10-17T08:31:45.280Z,15.50
2022-10-17T08:34:15.831Z,15.60
2022-10-17T08:36:42.931Z,15.70
2022-10-17T08:39:10.096Z,15.80
2022-10-17T08:41:47.105Z,16.00
2022-10-17T08:44:18.329Z,16.10
2022-10-17T08:46:49.039Z,16.30
2022-10-17T08:49:25.957Z,16.40
2022-10-17T08:52:04.527Z,16.50
2022-10-17T08:54:40.491Z,16.60
2022-10-17T08:57:13.298Z,16.70
2022-10-17T08:59:40.704Z,16.70
2022-10-17T09:02:16.756Z,16.80
2022-10-17T09:05:25.528Z,16.90
2022-10-17T09:08:19.384Z,17.10
2022-10-17T09:11:10.064Z,17.30
2022-10-17T09:13:59.001Z,17.30
2022-10-17T09:17:07.666Z,17.30
2022-10-17T09:19:38.846Z,17.40
2022-10-17T09:22:22.828Z,17.50
2022-10-17T09:24:59.184Z,17.60
2022-10-17T09:27:48.614Z,17.60
2022-10-17T09:30:45.277Z,17.80
2022-10-17T09:33:35.684Z,17.90
2022-10-17T09:36:17.407Z,18.10
2022-10-17T09:38:59.728Z,18.10
2022-10-17T09:41:49.996Z,18.30
2022-10-17T09:44:17.216Z,18.40
2022-10-17T09:47:23.817Z,18.60
2022-10-17T09:49:51.745Z,18.70
2022-10-17T09:52:22.674Z,18.80
2022-10-17T09:54:53.595Z,18.90
2022-10-17T09:57:21.988Z,19.00
2022-10-17T10:00:05.300Z,19.10
2022-10-17T10:02:36.380Z,19.20
2022-10-17T10:05:19.947Z,19.30
2022-10-17T10:08:03.808Z,19.30
2022-10-17T10:10:32.116Z,19.40
2022-10-17T10:13:16.162Z,19.50
2022-10-17T10:15:45.817Z,19.70
2022-10-17T10:18:24.867Z,19.70
2022-10-17T10:21:09.964Z,19.80
2022-10-17T10:23:41.856Z,19.90
2022-10-17T10:26:12.462Z,20.10
2022-10-17T10:28:40.170Z,20.10
2022-10-17T10:31:09.390Z,20.20
2022-10-17T10:33:43.016Z,20.30
2022-10-17T10:36:12.157Z,20.60
2022-10-17T10:38:40.968Z,20.60
2022-10-17T10:41:10.299Z,20.70
2022-10-17T10:43:45.241Z,20.80
2022-10-17T10:46:28.015Z,20.90
2022-10-17T10:49:00.153Z,20.90
2022-10-17T10:51:41.420Z,21.00
2022-10-17T10:54:33.347Z,21.10
2022-10-17T10:57:04.468Z,21.30
2022-10-17T11:00:04.912Z,21.30
2022-10-17T11:02:54.320Z,21.40
2022-10-17T11:05:53.888Z,21.60
2022-10-17T11:08:24.124Z,21.60
2022-10-17T11:11:19.765Z,21.70
2022-10-17T11:14:08.074Z,21.70
2022-10-17T11:16:44.604Z,21.70
2022-10-17T11:19:45.260Z,21.70
2022-10-17T11:22:31.236Z,21.70
2022-10-17T11:25:12.557Z,21.90
2022-10-17T11:27:39.659Z,21.90
2022-10-17T11:30:12.405Z,21.90
2022-10-17T11:32:46.719Z,22.00
2022-10-17T11:35:27.703Z,21.90
2022-10-17T11:38:21.825Z,22.00
2022-10-17T11:40:52.174Z,22.00
2022-10-17T11:43:54.286Z,22.00
2022-10-17T11:46:26.802Z,22.10
2022-10-17T11:49:16.119Z,22.10
2022-10-17T11:52:00.463Z,22.20
2022-10-17T11:54:41.708Z,22.20
2022-10-17T11:57:29.581Z,22.30
2022-10-17T12:00:02.359Z,22.30
2022-10-17T12:02:50.948Z,22.30
2022-10-17T12:05:45.438Z,22.30
2022-10-17T12:08:39.209Z,22.30
2022-10-17T12:11:38.386Z,22.30
2022-10-17T12:14:34.441Z,22.40
2022-10-17T12:17:03.166Z,22.40
2022-10-17T12:19:33.837Z,22.50
2022-10-17T12:22:05.841Z,22.50
2022-10-17T12:24:41.240Z,22.50
2022-10-17T12:27:30.091Z,22.60
2022-10-17T12:30:03.371Z,22.70
2022-10-17T12:32:46.977Z,22.70
2022-10-17T12:35:23.823Z,22.70
2022-10-17T12:37:50.945Z,22.70
2022-10-17T12:40:36.228Z,22.80
2022-10-17T12:43:15.786Z,22.80
2022-10-17T12:45:50.198Z,22.90
2022-10-17T12:48:42.081Z,22.90
2022-10-17T12:51:35.390Z,22.90
2022-10-17T12:54:13.458Z,22.90
2022-10-17T12:56:42.260Z,23.00
2022-10-17T12:59:29.830Z,23.00
2022-10-17T13:02:00.116Z,23.10
2022-10-17T13:04:29.717Z,23.10
2022-10-17T13:06:59.003Z,23.20
2022-10-17T13:09:30.022Z,23.10
2022-10-17T13:12:00.406Z,23.10
2022-10-17T13:14:28.407Z,23.10
2022-10-17T13:17:03.975Z,23.20
2022-10-17T13:19:40.467Z,23.20
2022-10-17T13:22:22.648Z,23.20
2022-10-17T13:24:51.470Z,23.30
2022-10-17T13:27:23.096Z,23.30
2022-10-17T13:29:50.315Z,23.30
2022-10-17T13:32:17.853Z,23.40
2022-10-17T13:34:44.965Z,23.50
2022-10-17T13:37:15.514Z,23.50
2022-10-17T13:39:55.168Z,23.50
2022-10-17T13:42:27.485Z,23.50
2022-10-17T13:44:56.505Z,23.60
2022-10-17T13:47:26.418Z,23.60
2022-10-17T13:49:55.678Z,23.60
2022-10-17T13:52:26.888Z,23.60
2022-10-17T13:54:55.442Z,23.70
2022-10-17T13:57:30.876Z,23.70
2022-10-17T13:59:59.614Z,23.70
2022-10-17T14:02:30.290Z,23.70
2022-10-17T14:05:23.616Z,23.60
2022-10-17T14:08:10.524Z,23.60
2022-10-17T14:10:41.013Z,23.60
2022-10-17T14:13:18.805Z,23.50
2022-10-17T14:15:46.603Z,23.30
2022-10-17T14:18:29.083Z,23.40
2022-10-17T14:23:46.346Z,23.20
2022-10-17T14:26:15.464Z,23.10
2022-10-17T14:28:45.451Z,23.10
2022-10-17T14:31:17.145Z,23.10
2022-10-17T14:33:50.491Z,23.20
2022-10-17T14:36:19.837Z,23.20
2022-10-17T14:38:55.889Z,23.20
2022-10-17T14:41:42.457Z,23.10
2022-10-17T14:44:19.262Z,23.10
2022-10-17T14:46:50.993Z,23.10
2022-10-17T14:49:26.011Z,23.10
2022-10-17T14:52:18.624Z,23.10
2022-10-17T14:54:48.089Z,23.00
2022-10-17T14:57:23.627Z,22.80
2022-10-17T14:59:55.411Z,22.70
2022-10-17T15:02:24.712Z,22.60
2022-10-17T15:04:52.183Z,22.40
2022-10-17T15:07:21.264Z,22.30
2022-10-17T15:09:50.278Z,22.10
2022-10-17T15:12:19.589Z,22.00
2022-10-17T15:14:50.622Z,21.90
2022-10-17T15:17:27.676Z,21.80
2022-10-17T15:19:55.553Z,21.70
2022-10-17T15:22:23.388Z,21.60
2022-10-17T15:24:50.719Z,21.50
2022-10-17T15:27:23.321Z,21.40
2022-10-17T15:29:51.638Z,21.20
2022-10-17T15:32:19.178Z,21.10
2022-10-17T15:34:46.415Z,21.10
2022-10-17T15:37:22.345Z,21.10
2022-10-17T15:39:54.584Z,21.10
2022-10-17T15:42:26.327Z,21.00
2022-10-17T15:44:53.857Z,21.00
2022-10-17T15:47:28.478Z,21.00
2022-10-17T15:49:56.027Z,21.00
2022-10-17T15:52:23.708Z,21.00
2022-10-17T15:54:51.226Z,20.80
2022-10-17T15:57:21.424Z,20.70
2022-10-17T15:59:50.441Z,20.70
2022-10-17T16:02:20.203Z,20.60
2022-10-17T16:04:49.120Z,20.60
2022-10-17T16:07:16.958Z,20.60
2022-10-17T16:09:44.193Z,20.50
2022-10-17T16:12:16.400Z,20.50
2022-10-17T16:14:43.562Z,20.40
2022-10-17T16:17:17.652Z,20.20
2022-10-17T16:19:45.241Z,20.10
2022-10-17T16:22:26.314Z,19.70
2022-10-17T16:25:07.216Z,19.50
2022-10-17T16:27:34.392Z,19.40
2022-10-17T16:30:01.787Z,19.20
2022-10-17T16:32:29.176Z,19.10
2022-10-17T16:34:56.520Z,18.90
2022-10-17T16:37:23.721Z,18.80
2022-10-17T16:39:52.497Z,18.70
2022-10-17T16:42:23.326Z,18.50
2022-10-17T16:44:50.801Z,18.30
2022-10-17T16:47:19.057Z,18.10
2022-10-17T16:49:46.224Z,18.00
2022-10-17T16:52:13.861Z,17.80
2022-10-17T16:54:41.142Z,17.70
2022-10-17T16:57:08.402Z,17.50
2022-10-17T16:59:35.532Z,17.50
2022-10-17T17:02:02.715Z,17.40
2022-10-17T17:04:29.997Z,17.20
2022-10-17T17:06:57.292Z,17.10
2022-10-17T17:09:24.443Z,17.00
2022-10-17T17:11:51.895Z,16.90
2022-10-17T17:14:19.037Z,16.90
2022-10-17T17:16:46.196Z,16.70
2022-10-17T17:19:16.846Z,16.70
2022-10-17T17:21:51.014Z,16.60
2022-10-17T17:24:22.846Z,16.60
2022-10-17T17:26:54.687Z,16.50
2022-10-17T17:29:22.852Z,16.40
2022-10-17T17:31:50.710Z,16.40
2022-10-17T17:34:18.510Z,16.30
2022-10-17T17:36:45.885Z,16.30
2022-10-17T17:39:14.578Z,16.30
2022-10-17T17:41:43.207Z,16.20
2022-10-17T17:44:15.591Z,16.10
2022-10-17T17:46:44.651Z,15.90
2022-10-17T17:49:12.264Z,15.80
2022-10-17T17:51:41.462Z,15.70
2022-10-17T17:54:11.510Z,15.60
2022-10-17T17:56:39.292Z,15.50
2022-10-17T17:59:06.736Z,15.40
2022-10-17T18:01:39.033Z,14.90
2022-10-17T18:04:11.091Z,14.90
2022-10-17T18:06:41.339Z,14.90
2022-10-17T18:09:09.216Z,14.90
2022-10-17T18:11:37.453Z,14.80
2022-10-17T18:14:07.590Z,14.80
2022-10-17T18:16:37.111Z,14.80
2022-10-17T18:19:07.106Z,14.80
2022-10-17T18:21:35.833Z,14.60
2022-10-17T18:24:04.770Z,14.50
2022-10-17T18:26:32.553Z,14.50
2022-10-17T18:28:59.768Z,14.50
2022-10-17T18:31:35.321Z,14.50
2022-10-17T18:34:03.740Z,14.40
2022-10-17T18:36:31.862Z,14.40
2022-10-17T18:39:00.480Z,14.30
2022-10-17T18:41:28.355Z,14.30
2022-10-17T18:43:56.633Z,14.30
2022-10-17T18:46:30.100Z,14.30
2022-10-17T18:48:57.326Z,14.10
2022-10-17T18:51:25.815Z,14.10
2022-10-17T18:53:54.853Z,14.10
2022-10-17T18:56:22.831Z,14.00
2022-10-17T18:58:50.300Z,13.90
2022-10-17T19:01:22.977Z,13.90
2022-10-17T19:03:51.903Z,13.90
2022-10-17T19:06:22.061Z,13.80
2022-10-17T19:08:49.279Z,13.80
2022-10-17T19:11:25.340Z,13.80
2022-10-17T19:13:53.073Z,13.70
2022-10-17T19:16:29.718Z,13.70
2022-10-17T19:18:59.663Z,13.70
2022-10-17T19:21:27.250Z,13.70
2022-10-17T19:23:56.835Z,13.60
2022-10-17T19:26:25.860Z,13.70
2022-10-17T19:28:53.815Z,13.70
2022-10-17T19:31:26.835Z,13.60
2022-10-17T19:33:56.152Z,13.60
2022-10-17T19:36:28.892Z,13.70
2022-10-17T19:39:00.419Z,13.60
2022-10-17T19:41:28.210Z,13.60
2022-10-17T19:43:55.487Z,13.50
2022-10-17T19:46:26.422Z,13.40
2022-10-17T19:48:53.654Z,13.30
2022-10-17T19:51:24.507Z,13.20
2022-10-17T19:53:52.722Z,13.10
2022-10-17T19:56:21.297Z,13.10
2022-10-17T19:58:49.866Z,13.00
2022-10-17T20:01:19.828Z,13.00
2022-10-17T20:03:47.319Z,13.00
2022-10-17T20:06:15.413Z,13.00
2022-10-17T20:08:42.898Z,13.00
2022-10-17T20:11:14.770Z,13.00
2022-10-17T20:13:42.180Z,12.90
2022-10-17T20:16:13.165Z,12.90
2022-10-17T20:18:40.910Z,12.80
2022-10-17T20:21:13.947Z,12.80
2022-10-17T20:23:41.946Z,12.80
2022-10-17T20:26:26.088Z,12.80
2022-10-17T20:29:02.872Z,12.80
2022-10-17T20:31:30.389Z,12.70
2022-10-17T20:33:58.919Z,12.80
2022-10-17T20:36:26.187Z,12.80
2022-10-17T20:38:57.798Z,12.80
2022-10-17T20:41:26.411Z,12.80
2022-10-17T20:43:55.011Z,12.80
2022-10-17T20:46:35.506Z,12.80
2022-10-17T20:49:04.917Z,12.80
2022-10-17T20:51:32.105Z,12.80
2022-10-17T20:53:59.552Z,12.80
2022-10-17T20:56:29.366Z,12.80
2022-10-17T20:59:00.068Z,12.30
